Time;durP1;ratioP1;P1;durP2;ratioP2;P2;SDS_P1;SDS_P2;PMS_P1;PMS_P2;Temp;Humidity;BMP_temperature;BMP_pressure;BME280_temperature;BME280_humidity;BME280_pressure;Samples;Min_cycle;Max_cycle;Signal;HPM_P1;HPM_P2
2023/04/22 05:44:46;;;;;;;34.55;22.40;;;;;;;;;;6181750;23;20064;-84
2023/04/22 06:23:26;;;;;;;28.60;21.42;;;;;;;;;;6183328;23;20025;-86
2023/04/22 07:23:22;;;;;;;11.45;5.75;;;;;;;;;;6139887;22;20371;-85
2023/04/22 07:25:48;;;;;;;15.27;6.30;;;;;;;;;;6181072;23;20033;-86
2023/04/22 07:28:14;;;;;;;10.50;7.00;;;;;;;;;;6180474;23;20017;-82
2023/04/22 07:30:40;;;;;;;18.02;11.65;;;;;;;;;;6181477;23;20068;-83
2023/04/22 07:33:06;;;;;;;27.35;14.70;;;;;;;;;;6186203;23;20016;-85
2023/04/22 07:35:32;;;;;;;19.83;14.95;;;;;;;;;;6188083;23;20013;-83
2023/04/22 07:37:58;;;;;;;24.15;14.68;;;;;;;;;;6186074;23;20719;-85
2023/04/22 07:40:24;;;;;;;22.48;16.08;;;;;;;;;;6185059;23;20017;-84
2023/04/22 07:42:50;;;;;;;24.05;16.63;;;;;;;;;;6210807;23;20123;-84
2023/04/22 07:45:17;;;;;;;24.67;17.90;;;;;;;;;;6184616;23;20443;-85
2023/04/22 07:47:43;;;;;;;19.13;14.02;;;;;;;;;;6185132;23;20004;-80
2023/04/22 07:50:09;;;;;;;21.75;14.90;;;;;;;;;;6185155;23;20016;-82
2023/04/22 07:52:35;;;;;;;18.90;12.80;;;;;;;;;;6183666;23;20004;-84
2023/04/22 08:27:23;;;;;;;;;;;;;;;;;;;;;
2023/04/22 10:19:00;;;;;;;19.05;12.80;;;;;;;;;;6188190;22;20103;-80
2023/04/22 10:29:47;;;;;;;18.63;14.65;;;;;;;;;;6205900;22;20074;-79
2023/04/22 11:15:47;;;;;;;17.73;11.95;;;;;;;;;;6180607;23;20024;-81
2023/04/22 11:30:06;;;;;;;14.85;11.52;;;;;;;;;;6182915;23;20009;-86
2023/04/22 11:32:32;;;;;;;15.25;11.57;;;;;;;;;;6182658;23;20012;-88
2023/04/22 11:35:03;;;;;;;16.17;10.57;;;;;;;;;;6180453;23;20052;-86
2023/04/22 11:37:29;;;;;;;16.30;10.30;;;;;;;;;;6181796;23;20377;-87
2023/04/22 11:40:03;;;;;;;17.35;11.15;;;;;;;;;;6182598;23;20105;-85
2023/04/22 11:42:32;;;;;;;17.88;11.93;;;;;;;;;;6183463;23;20053;-88
2023/04/22 11:44:58;;;;;;;17.13;9.88;;;;;;;;;;6185447;23;20345;-88
2023/04/22 11:47:24;;;;;;;15.88;9.18;;;;;;;;;;6183912;23;20281;-88
2023/04/22 11:50:10;;;;;;;16.95;10.05;;;;;;;;;;6184729;23;20017;-87
2023/04/22 11:52:47;;;;;;;18.83;11.85;;;;;;;;;;6184292;23;20017;-88
2023/04/22 11:55:14;;;;;;;16.90;11.43;;;;;;;;;;6185099;23;20436;-89
2023/04/22 11:57:41;;;;;;;16.77;11.65;;;;;;;;;;6186598;23;20427;-89
2023/04/22 12:00:12;;;;;;;16.27;11.35;;;;;;;;;;6185445;23;20424;-88
2023/04/22 12:02:38;;;;;;;17.70;12.02;;;;;;;;;;6185001;23;20009;-87
2023/04/22 12:05:04;;;;;;;15.18;10.95;;;;;;;;;;6186379;23;20029;-86
2023/04/22 12:07:32;;;;;;;15.38;11.05;;;;;;;;;;6185878;23;20060;-88
2023/04/22 12:10:00;;;;;;;15.38;9.93;;;;;;;;;;6183537;23;20005;-89
2023/04/22 12:12:26;;;;;;;16.65;12.65;;;;;;;;;;6184660;23;20064;-89
2023/04/22 12:14:52;;;;;;;16.10;10.73;;;;;;;;;;6183204;23;20435;-89
2023/04/22 12:19:48;;;;;;;15.88;9.73;;;;;;;;;;6183904;23;20025;-88
2023/04/22 12:22:25;;;;;;;15.75;9.15;;;;;;;;;;6156213;23;20055;-86
2023/04/22 12:24:51;;;;;;;14.27;9.75;;;;;;;;;;6156296;23;20108;-88
2023/04/22 12:27:22;;;;;;;11.02;8.57;;;;;;;;;;6156038;23;20040;-86
2023/04/22 12:29:52;;;;;;;14.82;8.80;;;;;;;;;;6156122;23;20052;-87
2023/04/22 18:28:03;;;;;;;10.90;5.40;;;;;;;;;;6203715;23;20032;-82
2023/04/22 18:44:01;;;;;;;11.05;6.25;;;;;;;;;;6224778;22;20035;-85
